KATY/ATY METAR and TAF weather

Enter ICAO airport designator
Station Type Date Time Source
KATY METAR 2020/03/31 21:53 UTC NOAA

KATY 312153Z AUTO 11014G24KT 10SM OVC060 10/01 A2990 RMK AO2 SLP135 T01000011


Station Type Date Time Source
KATY Decoded METAR 2020/03/31 21:53 UTC NOAA

WATERTOWN MUNICIPAL AIRPORT, SD, United States (KATY) 44-54N 097-09W 532M
Mar 31, 2020 - 05:53 PM EDT / 2020.03.31 2153 UTC
Wind: from the ESE (110 degrees) at 16 MPH (14 KT) gusting to 28 MPH (24 KT):0
Visibility: 10 mile(s):0
Sky conditions: overcast
Temperature: 50.0 F (10.0 C)
Dew Point: 34.0 F (1.1 C)
Relative Humidity: 53%
Pressure (altimeter): 29.9 in. Hg (1012 hPa)
ob: KATY 312153Z AUTO 11014G24KT 10SM OVC060 10/01 A2990 RMK AO2 SLP135 T01000011
cycle: 22

Station Type Date Time Source
KATY TAF 2020/03/31 19:58 UTC NOAA

TAF
AMD KATY 311857Z 3119/0118 13015G22KT P6SM OVC080
FM010700 14014G25KT P6SM SCT060

Example: see airport list